This is the latest recevied weather packets stored in our database for station/object WMKJ. If no packets are shown the sender has not sent any weather packets the latest 10 day(s).
| Time | Temp. | Humidity | Pressure | Rain* | Wind** | Luminosity | Snow |
|---|---|---|---|---|---|---|---|
| 1777954227 | 32.78° C | 59% | 1009 hPa | - | - | - | - |
| 1777950628 | 30.56° C | 66% | 1010 hPa | - | - | - | - |
| 1777947030 | 30° C | 70% | 1010 hPa | - | - | - | - |
| 1777943427 | 26.67° C | 83% | 1010 hPa | - | - | - | - |
| 1777939837 | 25° C | 88% | 1009 hPa | - | - | - | - |
| 1777936228 | 23.89° C | 88% | 1009 hPa | - | - | - | - |
| 1777932626 | 23.89° C | 88% | 1008 hPa | - | - | - | - |
| 1777929026 | 23.89° C | 88% | 1008 hPa | - | - | - | - |
| 1777925429 | 23.89° C | 94% | 1008 hPa | - | - | - | - |
| 1777921836 | 23.89° C | 94% | 1008 hPa | - | - | - | - |
| 1777918232 | 23.89° C | 94% | 1009 hPa | - | - | - | - |
| 1777914627 | 25° C | 88% | 1010 hPa | - | - | - | - |
| 1777911027 | 25° C | 88% | 1010 hPa | - | - | - | - |
| 1777907434 | 25° C | 88% | 1010 hPa | - | - | - | - |
| 1777903829 | 25° C | 94% | 1010 hPa | - | - | - | - |
| 1777900226 | 25.56° C | 88% | 1008 hPa | - | - | - | - |
| 1777896627 | 25.56° C | 88% | 1008 hPa | - | - | - | - |
| 1777893033 | 26.67° C | 83% | 1008 hPa | - | - | - | - |
| 1777889427 | 27.78° C | 83% | 1007 hPa | - | - | - | - |
| 1777885825 | 27.78° C | 78% | 1007 hPa | - | - | - | - |
| 1777882225 | 27.78° C | 78% | 1007 hPa | - | - | - | - |
| 1777878632 | 27.78° C | 74% | 1008 hPa | - | - | - | - |
| 1777877396 | 27.78° C | 78% | 1008 hPa | - | - | - | - |
| 1777875025 | 32.78° C | 62% | 1009 hPa | - | - | - | - |
| 1777871425 | 32.78° C | 62% | 1010 hPa | - | - | - | - |
* Rain since midnight (hover to see other rain measurements)
** Current wind speed in m/s (hover to see current wind gust speed)